Time;durP1;ratioP1;P1;durP2;ratioP2;P2;SDS_P1;SDS_P2;PMS_P1;PMS_P2;Temp;Humidity;BMP_temperature;BMP_pressure;BME280_temperature;BME280_humidity;BME280_pressure;Samples;Min_cycle;Max_cycle;Signal;HPM_P1;HPM_P2
2022/01/21 04:53:45;;;;;;;8.38;2.42;;;-1.40;1.00;;;;;;6019398;23;20299;-78
2022/01/21 05:08:05;;;;;;;5.97;2.10;;;-1.40;1.00;;;;;;6026812;23;20741;-76
2022/01/21 05:10:38;;;;;;;5.80;2.08;;;-1.40;1.00;;;;;;6217599;22;20307;-77
2022/01/21 05:13:09;;;;;;;3.42;1.60;;;-1.40;1.00;;;;;;6331596;22;20218;-78
2022/01/21 05:16:02;;;;;;;7.82;2.15;;;-1.50;1.00;;;;;;6329956;22;20257;-77
2022/01/21 05:18:32;;;;;;;4.88;2.03;;;-1.50;1.00;;;;;;6335484;22;20207;-78
2022/01/21 05:21:06;;;;;;;4.75;1.73;;;-1.40;1.00;;;;;;6332118;22;20198;-79
2022/01/21 05:24:03;;;;;;;5.82;2.00;;;-1.50;1.00;;;;;;6331472;22;20194;-79
2022/01/21 05:26:37;;;;;;;5.82;2.25;;;-1.50;1.00;;;;;;6328581;22;20207;-78
2022/01/21 05:29:11;;;;;;;3.78;1.95;;;-1.50;1.00;;;;;;6335935;22;20471;-79
2022/01/21 05:31:40;;;;;;;5.25;1.85;;;-1.50;1.00;;;;;;6332127;22;20281;-80
2022/01/21 06:47:30;;;;;;;4.75;2.42;;;-1.50;1.00;;;;;;6168347;22;20295;-77
2022/01/21 06:49:59;;;;;;;4.20;2.35;;;-1.50;1.00;;;;;;6238299;22;20203;-78
2022/01/21 06:52:27;;;;;;;5.75;1.90;;;-1.50;1.00;;;;;;6309041;22;20202;-78
2022/01/21 06:54:59;;;;;;;6.13;1.90;;;-1.50;1.00;;;;;;6335778;22;20222;-80
2022/01/21 06:57:45;;;;;;;6.65;3.13;;;-1.50;1.00;;;;;;6337181;22;20693;-78
2022/01/21 07:00:39;;;;;;;7.18;2.83;;;-1.50;1.00;;;;;;6337861;22;20291;-79
2022/01/21 07:03:12;;;;;;;6.78;2.63;;;-1.50;1.00;;;;;;6309492;22;20187;-77
2022/01/21 07:05:46;;;;;;;2.60;1.40;;;-1.50;1.00;;;;;;6306810;22;20328;-77
2022/01/21 07:08:20;;;;;;;10.30;3.88;;;-1.50;1.00;;;;;;6337716;22;20197;-77
2022/01/21 07:10:54;;;;;;;6.47;2.72;;;-1.40;1.00;;;;;;6339165;22;20191;-78
2022/01/21 07:13:30;;;;;;;6.20;3.05;;;-1.40;1.00;;;;;;6336508;22;20413;-79
2022/01/21 07:16:17;;;;;;;10.80;2.40;;;-1.40;1.00;;;;;;6333727;22;21116;-79
2022/01/21 07:25:14;;;;;;;4.97;2.63;;;-1.40;1.00;;;;;;6297778;22;20321;-81
2022/01/21 07:28:34;;;;;;;3.15;1.75;;;-1.30;1.00;;;;;;6325459;22;20244;-82
2022/01/21 07:31:29;;;;;;;4.95;2.10;;;-1.30;1.00;;;;;;6345265;22;20185;-83
2022/01/21 07:34:38;;;;;;;5.70;2.38;;;-1.30;1.00;;;;;;6345511;22;20206;-82
2022/01/21 07:37:50;;;;;;;4.53;2.58;;;-1.30;1.00;;;;;;6347588;22;21022;-82
2022/01/21 07:40:27;;;;;;;6.10;3.28;;;-1.30;1.00;;;;;;6338386;22;20213;-81
2022/01/21 07:42:56;;;;;;;6.30;2.15;;;-1.20;1.00;;;;;;6341383;22;20198;-82
2022/01/21 07:45:29;;;;;;;5.95;2.30;;;-1.20;1.00;;;;;;6307998;22;20269;-80
2022/01/21 07:48:01;;;;;;;5.45;2.53;;;-1.20;1.00;;;;;;6340652;22;21138;-80
2022/01/21 07:50:37;;;;;;;4.65;2.45;;;-1.20;1.00;;;;;;6364611;22;20220;-78
2022/01/21 07:54:08;;;;;;;9.88;2.65;;;-1.10;1.00;;;;;;6349561;22;20198;-78
2022/01/21 07:56:37;;;;;;;4.55;3.28;;;-1.10;1.00;;;;;;6327841;22;20197;-77
2022/01/21 07:59:45;;;;;;;7.50;2.97;;;-1.10;1.00;;;;;;6360238;22;20186;-77
2022/01/21 08:18:09;;;;;;;6.00;2.25;;;-0.70;1.00;;;;;;6400925;22;20205;-79
2022/01/21 08:21:18;;;;;;;7.53;2.97;;;-0.70;1.00;;;;;;6332887;22;20334;-80
2022/01/21 08:27:37;;;;;;;5.57;2.97;;;-0.40;1.00;;;;;;6235726;22;20213;-78
2022/01/21 08:30:34;;;;;;;7.00;2.00;;;-0.20;1.00;;;;;;6341141;22;20194;-79
2022/01/21 08:44:39;;;;;;;6.97;2.13;;;0.30;1.00;;;;;;6115620;22;20229;-78
2022/01/21 08:51:29;;;;;;;4.75;2.25;;;0.30;1.00;;;;;;6214381;22;20862;-78
2022/01/21 08:54:30;;;;;;;7.82;2.42;;;0.40;1.00;;;;;;6228406;22;20986;-79
2022/01/21 08:57:49;;;;;;;7.68;2.50;;;0.50;1.00;;;;;;6236243;22;20228;-80
2022/01/21 09:00:43;;;;;;;10.98;2.47;;;0.70;1.00;;;;;;6168812;23;20252;-78
2022/01/21 09:03:56;;;;;;;;;;;;;;;;;;;;;
2022/01/21 09:13:03;;;;;;;12.02;3.67;;;0.80;1.00;;;;;;6362923;22;20982;-78
2022/01/21 09:16:25;;;;;;;9.07;3.85;;;0.90;1.00;;;;;;6340645;22;20202;-79
2022/01/21 09:19:06;;;;;;;8.82;2.80;;;0.90;1.00;;;;;;6212789;22;20197;-78
2022/01/21 09:21:45;;;;;;;6.88;2.35;;;0.80;1.00;;;;;;6356457;22;20285;-78
2022/01/21 09:24:14;;;;;;;7.32;3.00;;;0.70;1.00;;;;;;6373291;22;20244;-79
2022/01/21 09:26:49;;;;;;;7.20;3.67;;;0.70;1.00;;;;;;6337321;22;20266;-79
2022/01/21 09:29:17;;;;;;;5.55;2.42;;;0.70;1.00;;;;;;6368376;22;20220;-79
2022/01/21 09:31:48;;;;;;;11.55;3.97;;;0.90;1.00;;;;;;6340752;22;20195;-83
2022/01/21 09:34:16;;;;;;;7.30;2.67;;;0.90;1.00;;;;;;6370897;22;20190;-82
2022/01/21 09:36:44;;;;;;;5.93;2.70;;;1.00;1.00;;;;;;6368828;22;20216;-81
2022/01/21 09:39:13;;;;;;;8.73;3.00;;;1.20;1.00;;;;;;6371766;22;20193;-82
2022/01/21 09:41:54;;;;;;;5.95;2.40;;;1.40;1.00;;;;;;6370761;22;20186;-82
2022/01/21 09:44:27;;;;;;;3.95;2.25;;;1.50;1.00;;;;;;6343254;22;20276;-82
2022/01/21 09:46:57;;;;;;;5.60;2.22;;;1.70;1.00;;;;;;6367866;22;20206;-81
2022/01/21 09:49:29;;;;;;;6.57;3.00;;;1.90;1.00;;;;;;6370340;22;20190;-82
2022/01/21 09:51:58;;;;;;;5.00;2.65;;;2.10;1.00;;;;;;6368316;22;20174;-81
2022/01/21 09:54:29;;;;;;;7.28;2.80;;;2.40;1.00;;;;;;6341046;22;20215;-82
2022/01/21 09:57:01;;;;;;;6.50;2.40;;;2.70;1.00;;;;;;6364456;22;20181;-80
2022/01/21 09:59:30;;;;;;;6.50;2.95;;;3.20;1.00;;;;;;6367961;22;20199;-81
2022/01/21 10:02:03;;;;;;;11.75;3.10;;;3.40;1.00;;;;;;6365394;22;20198;-80
2022/01/21 10:04:35;;;;;;;6.45;3.50;;;3.10;1.00;;;;;;6370269;22;20878;-80
2022/01/21 10:07:14;;;;;;;8.20;2.85;;;3.40;1.00;;;;;;6342664;22;20217;-84
2022/01/21 10:09:53;;;;;;;10.27;3.50;;;4.20;1.00;;;;;;6336748;22;20233;-82
2022/01/21 10:12:29;;;;;;;6.60;2.50;;;4.80;1.00;;;;;;6337010;22;20200;-80
2022/01/21 10:14:57;;;;;;;6.55;2.75;;;5.30;1.00;;;;;;6370371;22;20182;-80
2022/01/21 10:17:24;;;;;;;11.15;2.63;;;5.40;1.00;;;;;;6343461;22;20355;-80
2022/01/21 10:19:53;;;;;;;8.80;2.90;;;5.30;1.00;;;;;;6365159;22;20336;-78
2022/01/21 10:22:26;;;;;;;10.23;5.18;;;4.80;1.00;;;;;;6374575;22;20349;-79
2022/01/21 10:24:57;;;;;;;6.13;4.45;;;4.50;1.00;;;;;;6380664;22;20715;-78
2022/01/21 10:27:27;;;;;;;6.10;2.55;;;4.10;1.00;;;;;;6338912;22;20216;-80
2022/01/21 10:29:57;;;;;;;6.28;2.55;;;4.50;1.00;;;;;;6363635;22;20191;-79
2022/01/21 10:32:38;;;;;;;9.77;2.72;;;5.50;1.00;;;;;;6362702;22;20679;-78
2022/01/21 10:35:20;;;;;;;5.88;2.42;;;6.00;1.00;;;;;;6363514;22;21043;-77
2022/01/21 10:37:48;;;;;;;7.32;2.95;;;6.50;1.00;;;;;;6364363;22;20983;-77
2022/01/21 10:40:16;;;;;;;4.65;2.28;;;6.20;1.00;;;;;;6341438;22;20194;-77
2022/01/21 10:42:49;;;;;;;5.35;2.00;;;5.70;1.00;;;;;;6367416;22;20193;-79
2022/01/21 10:45:21;;;;;;;5.45;2.80;;;5.50;1.00;;;;;;6365089;22;20186;-78
2022/01/21 10:47:51;;;;;;;5.20;2.85;;;5.50;1.00;;;;;;6363567;22;20198;-78
2022/01/21 10:50:24;;;;;;;9.65;3.08;;;5.10;1.00;;;;;;6369115;22;20186;-81
2022/01/21 10:52:54;;;;;;;5.88;2.97;;;5.80;1.00;;;;;;6362766;22;20951;-79
2022/01/21 10:55:30;;;;;;;6.95;2.90;;;6.50;1.00;;;;;;6367809;22;20190;-79
2022/01/21 10:58:05;;;;;;;4.18;2.35;;;6.40;1.00;;;;;;6337406;22;20698;-79
2022/01/21 11:00:35;;;;;;;5.70;2.45;;;5.90;1.00;;;;;;6335020;22;20194;-78
2022/01/21 11:03:10;;;;;;;4.65;2.70;;;5.80;1.00;;;;;;6368988;22;20201;-77
2022/01/21 11:05:45;;;;;;;4.82;2.55;;;6.10;1.00;;;;;;6376710;22;20237;-78
2022/01/21 11:08:16;;;;;;;11.25;2.80;;;6.00;1.00;;;;;;6349529;22;20206;-78
2022/01/21 11:10:49;;;;;;;4.05;2.25;;;5.90;1.00;;;;;;6367270;22;20189;-79
2022/01/21 11:13:44;;;;;;;4.70;2.63;;;5.70;1.00;;;;;;6338016;22;20194;-78
2022/01/21 11:16:18;;;;;;;5.93;2.47;;;6.30;1.00;;;;;;6368304;22;20188;-78
2022/01/21 11:18:57;;;;;;;8.15;2.80;;;6.60;1.00;;;;;;6337354;22;20768;-80
2022/01/21 11:21:44;;;;;;;5.25;1.95;;;6.60;1.00;;;;;;6338057;22;20194;-79
2022/01/21 11:24:14;;;;;;;6.43;2.55;;;6.20;1.00;;;;;;6337625;22;20201;-78
2022/01/21 11:27:07;;;;;;;7.72;2.20;;;5.80;1.00;;;;;;6362896;22;20229;-80
2022/01/21 11:29:41;;;;;;;3.50;2.30;;;5.70;1.00;;;;;;6370489;22;20201;-81
2022/01/21 11:32:13;;;;;;;6.03;2.90;;;5.60;1.00;;;;;;6342811;22;20209;-81
2022/01/21 11:34:49;;;;;;;5.28;2.40;;;5.90;1.00;;;;;;6333100;22;20185;-80
2022/01/21 11:37:19;;;;;;;5.88;2.50;;;6.50;1.00;;;;;;6335509;22;20190;-79
2022/01/21 11:39:48;;;;;;;3.30;2.10;;;6.80;1.00;;;;;;6364538;22;20217;-79
2022/01/21 11:42:18;;;;;;;3.30;1.50;;;7.10;1.00;;;;;;6360146;22;20198;-78
2022/01/21 11:44:52;;;;;;;5.20;2.53;;;7.40;1.00;;;;;;6361095;22;20208;-77
2022/01/21 11:47:48;;;;;;;6.18;2.55;;;7.60;1.00;;;;;;6331802;22;20208;-78
2022/01/21 11:50:18;;;;;;;7.13;2.33;;;7.60;1.00;;;;;;6363278;22;20544;-79
2022/01/21 11:52:49;;;;;;;5.57;2.30;;;8.10;1.00;;;;;;6344358;22;20916;-78
2022/01/21 11:55:31;;;;;;;8.55;2.63;;;8.30;1.00;;;;;;6365031;22;20216;-78
2022/01/21 11:58:12;;;;;;;6.28;2.10;;;8.50;1.00;;;;;;6360302;22;20199;-77
2022/01/21 12:00:40;;;;;;;3.75;2.00;;;9.50;1.00;;;;;;6364482;22;21317;-78
2022/01/21 12:03:08;;;;;;;6.90;2.05;;;10.20;1.00;;;;;;6362184;22;20209;-78
2022/01/21 12:05:36;;;;;;;4.20;1.40;;;9.60;1.00;;;;;;6337078;22;20183;-79
2022/01/21 12:08:08;;;;;;;7.93;2.47;;;9.20;1.00;;;;;;6368710;22;20727;-81
2022/01/21 12:10:41;;;;;;;3.92;1.92;;;9.00;1.00;;;;;;6368271;22;20186;-79
2022/01/21 12:13:13;;;;;;;3.35;1.70;;;8.90;1.00;;;;;;6338650;22;20911;-80
2022/01/21 12:16:20;;;;;;;3.92;1.90;;;9.10;1.00;;;;;;6371986;22;20186;-79
2022/01/21 12:19:08;;;;;;;4.43;1.92;;;9.70;1.00;;;;;;6343996;22;20193;-78
2022/01/21 12:21:37;;;;;;;4.80;1.90;;;9.80;1.00;;;;;;6369039;22;20178;-78
2022/01/21 12:24:08;;;;;;;6.40;2.40;;;10.30;1.00;;;;;;6341690;22;20295;-78
2022/01/21 12:26:35;;;;;;;4.68;1.60;;;11.30;1.00;;;;;;6340071;22;20261;-76
2022/01/21 12:29:24;;;;;;;4.85;2.50;;;11.40;1.00;;;;;;6363939;22;20192;-77
2022/01/21 12:32:00;;;;;;;6.07;3.03;;;10.70;1.00;;;;;;6366915;22;20205;-76
2022/01/21 12:34:29;;;;;;;5.75;1.85;;;11.10;1.00;;;;;;6376149;22;20242;-74
2022/01/21 12:36:57;;;;;;;2.75;1.48;;;11.70;1.00;;;;;;6351209;22;20200;-76
2022/01/21 12:39:39;;;;;;;3.78;1.38;;;11.70;1.00;;;;;;6379197;22;20189;-77
2022/01/21 12:42:25;;;;;;;10.23;3.47;;;12.80;1.00;;;;;;6364475;22;20189;-79
2022/01/21 12:44:54;;;;;;;2.60;1.63;;;13.50;1.00;;;;;;6363987;22;20510;-77
2022/01/21 12:47:32;;;;;;;3.73;1.97;;;13.80;1.00;;;;;;6362196;22;20416;-79
2022/01/21 12:50:09;;;;;;;4.40;2.10;;;14.00;1.00;;;;;;6362629;22;20458;-79
2022/01/21 12:52:49;;;;;;;5.10;2.23;;;14.00;1.00;;;;;;6366762;22;20879;-79
2022/01/21 12:58:15;;;;;;;4.73;1.63;;;13.50;1.00;;;;;;6333230;22;20397;-78
2022/01/21 13:00:45;;;;;;;3.93;2.60;;;13.80;1.00;;;;;;6362350;22;20400;-78
2022/01/21 13:03:20;;;;;;;6.40;3.60;;;14.30;1.00;;;;;;6361826;22;20506;-78
2022/01/21 13:06:03;;;;;;;4.00;2.00;;;13.70;1.00;;;;;;6361603;22;21217;-79
2022/01/21 13:08:37;;;;;;;5.50;2.20;;;13.10;1.00;;;;;;6337189;22;20440;-77
2022/01/21 13:11:16;;;;;;;3.65;1.70;;;11.70;1.00;;;;;;6334483;22;20390;-80
2022/01/21 13:13:51;;;;;;;4.35;2.40;;;11.00;1.00;;;;;;6363732;22;20628;-78
2022/01/21 13:16:29;;;;;;;3.47;1.52;;;10.60;1.00;;;;;;6362705;22;20255;-79
2022/01/21 13:19:01;;;;;;;3.90;2.17;;;10.40;1.00;;;;;;6337510;22;20186;-77
2022/01/21 13:21:29;;;;;;;6.38;2.30;;;11.00;1.00;;;;;;6367640;22;20290;-79
2022/01/21 13:23:58;;;;;;;4.70;1.80;;;11.90;1.00;;;;;;6362197;22;20293;-78
2022/01/21 13:26:31;;;;;;;4.57;1.67;;;12.40;1.00;;;;;;6362915;22;20440;-78
2022/01/21 13:29:03;;;;;;;3.37;1.57;;;12.10;1.00;;;;;;6333858;22;20428;-77
2022/01/21 13:31:34;;;;;;;3.05;1.40;;;11.60;1.00;;;;;;6367534;22;20590;-81
2022/01/21 13:34:14;;;;;;;6.78;1.70;;;10.30;1.00;;;;;;6363100;22;20205;-77
2022/01/21 13:36:46;;;;;;;2.92;1.85;;;9.30;1.00;;;;;;6364934;22;20171;-79
2022/01/21 13:39:16;;;;;;;4.03;1.63;;;9.20;1.00;;;;;;6363862;22;20193;-78
2022/01/21 13:41:50;;;;;;;4.88;1.80;;;9.10;1.00;;;;;;6363625;22;20293;-78
2022/01/21 13:44:30;;;;;;;5.32;2.10;;;9.10;1.00;;;;;;6362311;22;20190;-77
2022/01/21 13:46:57;;;;;;;4.80;1.92;;;8.50;1.00;;;;;;6364830;22;20239;-78
2022/01/21 13:49:26;;;;;;;5.45;1.92;;;7.40;1.00;;;;;;6366702;22;20186;-78
2022/01/21 13:51:55;;;;;;;4.72;1.55;;;6.50;1.00;;;;;;6338409;22;20192;-77
2022/01/21 13:54:44;;;;;;;4.13;1.83;;;5.50;1.00;;;;;;6368410;22;20222;-76
2022/01/21 13:57:14;;;;;;;4.55;1.65;;;5.00;1.00;;;;;;6331397;22;20713;-77
2022/01/21 13:59:45;;;;;;;3.58;1.50;;;4.50;1.00;;;;;;6361482;22;20187;-79
2022/01/21 14:02:23;;;;;;;3.70;1.70;;;4.20;1.00;;;;;;6337415;22;20273;-78
2022/01/21 14:04:58;;;;;;;3.83;1.90;;;4.00;1.00;;;;;;6366098;22;20253;-78
2022/01/21 14:07:30;;;;;;;3.78;2.30;;;3.80;1.00;;;;;;6365090;22;20272;-76
2022/01/21 14:10:01;;;;;;;4.95;1.83;;;3.70;1.00;;;;;;6334786;22;20200;-78
2022/01/21 14:12:31;;;;;;;6.72;2.20;;;3.60;1.00;;;;;;6366155;22;20397;-78
2022/01/21 14:14:59;;;;;;;4.07;1.75;;;3.50;1.00;;;;;;6336380;22;20525;-77
2022/01/21 14:17:31;;;;;;;6.32;1.80;;;3.50;1.00;;;;;;6364183;22;20879;-78
2022/01/21 14:20:14;;;;;;;3.92;1.50;;;3.40;1.00;;;;;;6335511;22;20190;-77
2022/01/21 14:22:48;;;;;;;6.82;2.60;;;3.40;1.00;;;;;;6334259;22;20456;-78
2022/01/21 14:25:16;;;;;;;4.57;1.90;;;3.30;1.00;;;;;;6362909;22;20182;-79
2022/01/21 14:27:50;;;;;;;5.43;2.58;;;3.30;1.00;;;;;;6364733;22;20198;-76
2022/01/21 14:30:20;;;;;;;4.88;2.85;;;3.30;1.00;;;;;;6361562;22;20219;-77
2022/01/21 14:32:51;;;;;;;4.45;1.50;;;3.30;1.00;;;;;;6366021;22;20244;-76
2022/01/21 14:35:25;;;;;;;3.55;1.90;;;3.30;1.00;;;;;;6335307;22;20280;-76
2022/01/21 14:37:54;;;;;;;6.03;1.90;;;3.20;1.00;;;;;;6363300;22;20244;-77
2022/01/21 14:40:30;;;;;;;3.88;1.45;;;3.20;1.00;;;;;;6367574;22;20190;-76
2022/01/21 14:43:12;;;;;;;6.43;1.85;;;3.10;1.00;;;;;;6377666;22;20280;-78
2022/01/21 14:45:53;;;;;;;5.53;2.08;;;3.10;1.00;;;;;;6338398;22;20185;-77
2022/01/21 14:48:24;;;;;;;6.30;2.55;;;3.10;1.00;;;;;;6377988;22;20186;-78
2022/01/21 14:50:53;;;;;;;4.43;1.55;;;3.10;1.00;;;;;;6338436;22;20217;-78
2022/01/21 14:53:30;;;;;;;5.82;1.55;;;3.10;1.00;;;;;;6336746;22;20206;-79
2022/01/21 14:55:57;;;;;;;5.85;2.08;;;3.10;1.00;;;;;;6364945;22;20197;-76
2022/01/21 14:58:36;;;;;;;4.30;2.55;;;3.10;1.00;;;;;;6338212;22;20194;-79
2022/01/21 15:01:10;;;;;;;3.40;1.80;;;3.10;1.00;;;;;;6364296;22;20285;-79
2022/01/21 15:03:46;;;;;;;5.43;1.63;;;3.10;1.00;;;;;;6338577;22;20193;-78
2022/01/21 15:06:27;;;;;;;4.63;1.80;;;3.10;1.00;;;;;;6364890;22;20389;-79
2022/01/21 15:09:01;;;;;;;5.82;1.60;;;3.00;1.00;;;;;;6337084;22;20202;-81
2022/01/21 15:11:55;;;;;;;3.10;1.58;;;3.00;1.00;;;;;;6334909;22;20190;-78
2022/01/21 15:14:33;;;;;;;4.75;1.63;;;3.00;1.00;;;;;;6338345;22;20491;-80
2022/01/21 15:17:12;;;;;;;4.38;1.88;;;3.00;1.00;;;;;;6336697;22;20985;-78
2022/01/21 15:19:49;;;;;;;7.15;2.00;;;3.00;1.00;;;;;;6339177;22;20190;-78
2022/01/21 15:22:23;;;;;;;3.53;1.92;;;3.00;1.00;;;;;;6367099;22;20204;-78
2022/01/21 15:24:52;;;;;;;2.72;1.42;;;3.00;1.00;;;;;;6368753;22;20977;-79
2022/01/21 15:27:27;;;;;;;4.10;1.60;;;3.00;1.00;;;;;;6340368;22;20623;-79
2022/01/21 15:29:56;;;;;;;3.50;1.73;;;3.00;1.00;;;;;;6343354;22;20203;-78
2022/01/21 15:32:24;;;;;;;5.88;3.13;;;2.90;1.00;;;;;;6354797;22;20190;-79
2022/01/21 15:34:55;;;;;;;6.30;1.40;;;2.90;1.00;;;;;;6349756;22;20197;-81
2022/01/21 15:37:27;;;;;;;3.17;1.98;;;2.90;1.00;;;;;;6371724;22;20190;-79
2022/01/21 15:39:59;;;;;;;9.93;2.40;;;2.90;1.00;;;;;;6343029;22;20194;-81
2022/01/21 15:42:28;;;;;;;5.43;1.42;;;2.90;1.00;;;;;;6370474;22;20186;-78
2022/01/21 15:44:59;;;;;;;7.13;2.97;;;2.80;1.00;;;;;;6341673;22;21361;-79
2022/01/21 15:47:29;;;;;;;4.85;1.30;;;2.90;1.00;;;;;;6343116;22;20197;-78
2022/01/21 15:49:59;;;;;;;6.63;2.22;;;2.90;1.00;;;;;;6366466;22;20186;-80
2022/01/21 15:52:26;;;;;;;4.05;1.90;;;2.90;1.00;;;;;;6341318;22;20198;-80
2022/01/21 15:55:03;;;;;;;1.75;1.30;;;2.80;1.00;;;;;;6340895;22;20275;-80
2022/01/21 15:57:34;;;;;;;5.22;1.90;;;2.90;1.00;;;;;;6343319;22;20211;-78
2022/01/21 16:00:07;;;;;;;7.13;1.90;;;2.80;1.00;;;;;;6391266;22;21427;-78
2022/01/21 16:02:48;;;;;;;4.38;1.90;;;2.80;1.00;;;;;;6360239;22;20178;-78
2022/01/21 16:05:18;;;;;;;3.95;2.15;;;2.80;1.00;;;;;;6344898;22;20190;-78
2022/01/21 16:07:55;;;;;;;5.13;1.67;;;2.80;1.00;;;;;;6373670;22;20206;-79
2022/01/21 16:10:23;;;;;;;5.10;1.98;;;2.80;1.00;;;;;;6371052;22;20178;-79
2022/01/21 16:12:52;;;;;;;3.45;1.60;;;2.80;1.00;;;;;;6343867;22;20261;-79
2022/01/21 16:15:25;;;;;;;3.85;1.75;;;2.70;1.00;;;;;;6382799;22;20959;-78
2022/01/21 16:17:52;;;;;;;4.07;2.17;;;2.70;1.00;;;;;;6341836;22;20205;-79
2022/01/21 16:20:22;;;;;;;3.60;1.90;;;2.70;1.00;;;;;;6343293;22;20261;-80
2022/01/21 16:22:49;;;;;;;4.40;1.92;;;2.60;1.00;;;;;;6370950;22;20195;-80
2022/01/21 16:25:19;;;;;;;4.32;1.95;;;2.60;1.00;;;;;;6344737;22;20190;-77
2022/01/21 16:27:49;;;;;;;6.63;1.92;;;2.60;1.00;;;;;;6382435;22;20201;-79
2022/01/21 16:30:18;;;;;;;3.47;1.73;;;2.60;1.00;;;;;;6357827;22;20194;-79
2022/01/21 16:32:50;;;;;;;6.55;2.20;;;2.60;1.00;;;;;;6345850;22;21144;-81
2022/01/21 16:35:22;;;;;;;5.43;1.77;;;2.60;1.00;;;;;;6367555;22;20194;-78
2022/01/21 16:37:49;;;;;;;5.60;1.80;;;2.50;1.00;;;;;;6332744;22;20194;-78
2022/01/21 16:40:17;;;;;;;6.38;2.92;;;2.50;1.00;;;;;;6366221;22;20518;-81
2022/01/21 16:42:44;;;;;;;4.93;1.90;;;2.50;1.00;;;;;;6335794;22;20236;-84
2022/01/21 16:45:14;;;;;;;3.38;2.20;;;2.50;1.00;;;;;;6335090;22;20187;-80
2022/01/21 16:47:44;;;;;;;5.45;2.15;;;2.40;1.00;;;;;;6367106;22;20388;-79
2022/01/21 16:50:13;;;;;;;4.05;2.30;;;2.40;1.00;;;;;;6364001;22;20634;-80
2022/01/21 16:52:40;;;;;;;3.60;1.70;;;2.40;1.00;;;;;;6339730;22;20359;-80
2022/01/21 16:55:10;;;;;;;7.80;3.97;;;2.40;1.00;;;;;;6364075;22;20194;-80
2022/01/21 16:57:37;;;;;;;7.18;2.13;;;2.40;1.00;;;;;;6337019;22;21036;-79
2022/01/21 17:00:06;;;;;;;3.80;2.00;;;2.30;1.00;;;;;;6366196;22;20194;-80
2022/01/21 17:02:33;;;;;;;5.68;2.00;;;2.30;1.00;;;;;;6366333;22;21377;-81
2022/01/21 17:05:01;;;;;;;3.22;1.65;;;2.20;1.00;;;;;;6335551;22;20193;-80
2022/01/21 17:07:30;;;;;;;4.50;2.08;;;2.20;1.00;;;;;;6364567;22;20281;-80
2022/01/21 17:09:58;;;;;;;5.10;2.33;;;2.10;1.00;;;;;;6358107;22;20292;-79
2022/01/21 17:12:29;;;;;;;3.88;2.22;;;2.20;1.00;;;;;;6372956;22;20220;-80
2022/01/21 17:14:56;;;;;;;6.10;2.92;;;2.20;1.00;;;;;;6338046;22;20250;-80
2022/01/21 17:17:23;;;;;;;3.70;2.60;;;2.20;1.00;;;;;;6340082;22;20250;-80
2022/01/21 17:19:51;;;;;;;5.18;2.15;;;2.20;1.00;;;;;;6367111;22;20182;-81
2022/01/21 17:22:18;;;;;;;3.45;2.67;;;2.20;1.00;;;;;;6338613;22;20201;-80
2022/01/21 17:24:47;;;;;;;9.35;2.80;;;2.20;1.00;;;;;;6336092;22;20281;-81
2022/01/21 17:27:15;;;;;;;4.57;2.30;;;2.20;1.00;;;;;;6366330;22;20259;-80
2022/01/21 17:29:42;;;;;;;4.50;2.70;;;2.20;1.00;;;;;;6340106;22;20283;-80
2022/01/21 17:32:10;;;;;;;6.60;3.15;;;2.20;1.00;;;;;;6370143;22;20810;-79
2022/01/21 17:34:37;;;;;;;6.45;2.28;;;2.20;1.00;;;;;;6336686;22;20300;-79
2022/01/21 17:37:10;;;;;;;3.53;2.30;;;2.20;1.00;;;;;;6341940;22;20186;-80
2022/01/21 17:39:37;;;;;;;7.88;3.10;;;2.20;1.00;;;;;;6341964;22;20197;-80
2022/01/21 17:42:06;;;;;;;7.57;3.15;;;2.20;1.00;;;;;;6341287;22;20236;-80
2022/01/21 17:44:38;;;;;;;6.20;3.08;;;2.20;1.00;;;;;;6368408;22;20623;-80
2022/01/21 17:47:05;;;;;;;4.93;2.50;;;2.20;1.00;;;;;;6340292;22;20214;-80
2022/01/21 17:49:33;;;;;;;6.18;3.17;;;2.30;1.00;;;;;;6367643;22;20202;-82
2022/01/21 17:52:04;;;;;;;6.72;3.72;;;2.30;1.00;;;;;;6343590;22;20194;-81
2022/01/21 17:54:32;;;;;;;7.43;2.58;;;2.40;1.00;;;;;;6340425;22;20198;-81
2022/01/21 17:57:00;;;;;;;3.80;2.50;;;2.40;1.00;;;;;;6360243;22;20989;-82
2022/01/21 17:59:57;;;;;;;6.80;3.72;;;2.40;1.00;;;;;;6338904;22;20285;-81
2022/01/21 18:02:28;;;;;;;5.28;3.50;;;2.50;1.00;;;;;;6366831;22;20231;-82
2022/01/21 18:04:56;;;;;;;7.45;3.30;;;2.50;1.00;;;;;;6365588;22;20189;-81
2022/01/21 18:07:32;;;;;;;9.43;4.05;;;2.50;1.00;;;;;;6364233;22;20233;-80
2022/01/21 18:10:08;;;;;;;6.22;3.47;;;2.50;1.00;;;;;;6336642;22;20236;-82
2022/01/21 18:12:38;;;;;;;6.78;4.20;;;2.50;1.00;;;;;;6368063;22;20255;-82
2022/01/21 18:15:17;;;;;;;6.45;2.20;;;2.50;1.00;;;;;;6364841;22;21307;-82
2022/01/21 18:17:48;;;;;;;6.22;3.25;;;2.50;1.00;;;;;;6368432;22;20201;-80
2022/01/21 18:20:16;;;;;;;5.32;3.00;;;2.60;1.00;;;;;;6341256;22;20186;-82
2022/01/21 18:22:46;;;;;;;5.97;2.92;;;2.60;1.00;;;;;;6342811;22;21026;-80
2022/01/21 18:25:14;;;;;;;8.00;3.92;;;2.60;1.00;;;;;;6340974;22;20264;-81
2022/01/21 18:27:51;;;;;;;6.57;3.45;;;2.60;1.00;;;;;;6376515;22;20186;-80
2022/01/21 18:30:22;;;;;;;8.27;3.70;;;2.60;1.00;;;;;;6391152;22;20202;-80
2022/01/21 18:32:52;;;;;;;5.82;3.08;;;2.70;1.00;;;;;;6383593;22;20190;-80
2022/01/21 18:35:24;;;;;;;7.20;4.40;;;2.70;1.00;;;;;;6337539;22;20199;-80
2022/01/21 18:38:05;;;;;;;7.93;3.55;;;2.70;1.00;;;;;;6341412;22;20216;-81
2022/01/21 18:40:36;;;;;;;8.77;2.97;;;2.70;1.00;;;;;;6339903;22;21021;-81
2022/01/21 18:43:08;;;;;;;8.60;3.88;;;2.70;1.00;;;;;;6342992;22;20205;-80
2022/01/21 18:45:46;;;;;;;6.65;3.30;;;2.80;1.00;;;;;;6341908;22;20198;-80
2022/01/21 18:48:28;;;;;;;7.95;4.18;;;2.80;1.00;;;;;;6383634;22;20174;-81
2022/01/21 18:50:59;;;;;;;8.07;3.22;;;2.80;1.00;;;;;;6375871;22;20188;-81
2022/01/21 18:53:29;;;;;;;5.70;3.83;;;2.80;1.00;;;;;;6339611;22;20224;-82
2022/01/21 18:56:06;;;;;;;6.72;3.15;;;2.80;1.00;;;;;;6340878;22;20251;-83
2022/01/21 18:58:44;;;;;;;8.23;3.60;;;2.90;1.00;;;;;;6370243;22;20630;-83
2022/01/21 19:01:23;;;;;;;6.18;3.75;;;2.90;1.00;;;;;;6338799;22;20863;-82
2022/01/21 19:03:55;;;;;;;10.20;3.72;;;2.90;1.00;;;;;;6366591;22;20386;-82
2022/01/21 19:06:31;;;;;;;8.60;4.03;;;3.00;1.00;;;;;;6342767;22;20259;-82
2022/01/21 19:09:05;;;;;;;8.02;4.70;;;3.00;1.00;;;;;;6344284;22;20219;-83
2022/01/21 19:11:43;;;;;;;7.47;3.10;;;3.00;1.00;;;;;;6341749;22;20190;-81
2022/01/21 19:14:16;;;;;;;11.20;3.05;;;3.00;1.00;;;;;;6367010;22;20251;-81
2022/01/21 19:16:50;;;;;;;6.93;4.10;;;3.00;1.00;;;;;;6338901;22;20777;-82
2022/01/21 19:19:31;;;;;;;10.35;3.35;;;3.00;1.00;;;;;;6370586;22;20201;-84
2022/01/21 19:22:09;;;;;;;9.13;2.95;;;3.00;1.00;;;;;;6366548;22;20202;-83
2022/01/21 19:24:41;;;;;;;8.75;3.20;;;3.00;1.00;;;;;;6339306;22;20212;-83
2022/01/21 19:27:14;;;;;;;12.73;3.00;;;3.00;1.00;;;;;;6339421;22;20186;-83
2022/01/21 19:29:47;;;;;;;7.28;3.03;;;3.00;1.00;;;;;;6370390;22;20198;-82
2022/01/21 19:32:19;;;;;;;12.20;3.80;;;3.10;1.00;;;;;;6342581;22;20684;-82
2022/01/21 19:37:34;;;;;;;11.07;3.35;;;3.20;1.00;;;;;;6364962;22;20243;-82
2022/01/21 19:40:11;;;;;;;8.95;4.03;;;3.30;1.00;;;;;;6367722;22;20236;-78
2022/01/21 19:42:44;;;;;;;10.27;3.90;;;3.30;1.00;;;;;;6365206;22;20252;-78
2022/01/21 19:45:21;;;;;;;8.70;4.30;;;3.40;1.00;;;;;;6335542;22;20634;-80
2022/01/21 19:47:56;;;;;;;10.02;3.47;;;3.40;1.00;;;;;;6364362;22;20201;-79
2022/01/21 19:50:32;;;;;;;24.85;12.43;;;3.40;1.00;;;;;;6365479;22;20700;-79
2022/01/21 19:53:01;;;;;;;5.00;3.30;;;3.40;1.00;;;;;;6366042;22;20197;-80
2022/01/21 19:55:37;;;;;;;7.82;3.70;;;3.40;1.00;;;;;;6335783;22;20280;-81
2022/01/21 19:58:24;;;;;;;10.23;5.03;;;3.40;1.00;;;;;;6363540;22;20330;-80
2022/01/21 23:32:11;;;;;;;8.88;7.30;;;3.70;1.00;;;;;;6372091;22;20198;-84
2022/01/21 23:47:22;;;;;;;;;;;;;;;;;;;;;
2022/01/21 23:58:51;;;;;;;10.30;6.22;;;4.00;1.00;;;;;;6281074;22;20188;-83
